createdAt,value
2023-01-19T00:01:25.606Z,0.60
2023-01-19T00:03:58.277Z,0.60
2023-01-19T00:06:28.736Z,0.50
2023-01-19T00:08:58.878Z,0.50
2023-01-19T00:11:29.405Z,0.60
2023-01-19T00:13:59.546Z,0.60
2023-01-19T00:16:32.920Z,0.60
2023-01-19T00:19:06.048Z,0.60
2023-01-19T00:21:36.176Z,0.60
2023-01-19T00:24:06.554Z,0.70
2023-01-19T00:26:40.547Z,0.80
2023-01-19T00:29:16.048Z,0.90
2023-01-19T00:31:46.365Z,1.00
2023-01-19T00:34:20.731Z,0.90
2023-01-19T00:36:50.874Z,0.90
2023-01-19T00:39:23.298Z,0.80
2023-01-19T00:42:05.984Z,0.80
2023-01-19T00:44:36.114Z,0.70
2023-01-19T00:47:06.395Z,0.70
2023-01-19T00:49:39.097Z,0.80
2023-01-19T00:52:09.532Z,0.90
2023-01-19T00:54:39.633Z,0.90
2023-01-19T00:57:10.019Z,0.90
2023-01-19T00:59:40.149Z,1.00
2023-01-19T01:02:12.679Z,1.00
2023-01-19T01:04:45.384Z,0.90
2023-01-19T01:07:15.531Z,0.90
2023-01-19T01:09:45.585Z,0.80
2023-01-19T01:12:15.746Z,0.90
2023-01-19T01:14:46.185Z,0.80
2023-01-19T01:17:16.402Z,0.90
2023-01-19T01:19:49.096Z,1.00
2023-01-19T01:22:19.274Z,1.00
2023-01-19T01:24:49.433Z,1.00
2023-01-19T01:27:19.757Z,1.00
2023-01-19T01:29:50.420Z,0.90
2023-01-19T01:32:20.564Z,0.90
2023-01-19T01:34:55.656Z,0.90
2023-01-19T01:37:25.775Z,0.90
2023-01-19T01:39:55.986Z,0.90
2023-01-19T01:42:35.977Z,0.80
2023-01-19T01:45:19.040Z,0.80
2023-01-19T01:47:54.329Z,0.90
2023-01-19T01:50:36.150Z,0.90
2023-01-19T01:53:12.577Z,0.80
2023-01-19T01:55:50.973Z,0.90
2023-01-19T01:58:21.091Z,1.00
2023-01-19T02:01:03.854Z,1.10
2023-01-19T02:03:34.565Z,1.10
2023-01-19T02:06:10.560Z,1.10
2023-01-19T02:09:01.847Z,1.10
2023-01-19T02:11:45.989Z,1.10
2023-01-19T02:14:16.239Z,1.10
2023-01-19T02:16:46.545Z,1.10
2023-01-19T02:19:25.429Z,1.10
2023-01-19T02:22:07.872Z,1.10
2023-01-19T02:24:41.124Z,1.00
2023-01-19T02:27:16.350Z,1.00
2023-01-19T02:29:46.994Z,1.00
2023-01-19T02:32:17.376Z,1.00
2023-01-19T02:34:47.581Z,1.00
2023-01-19T02:37:22.143Z,1.00
2023-01-19T02:40:01.800Z,1.00
2023-01-19T02:42:39.841Z,1.10
2023-01-19T02:45:15.312Z,1.20
2023-01-19T02:47:49.276Z,1.20
2023-01-19T02:50:46.331Z,1.20
2023-01-19T02:54:12.237Z,1.30
2023-01-19T02:57:09.142Z,1.30
2023-01-19T02:59:56.732Z,1.50
2023-01-19T03:02:40.087Z,1.60
2023-01-19T03:05:33.613Z,1.60
2023-01-19T03:08:17.609Z,1.70
2023-01-19T03:11:05.018Z,1.70
2023-01-19T03:13:49.002Z,1.70
2023-01-19T03:16:27.429Z,1.70
2023-01-19T03:19:05.680Z,1.60
2023-01-19T03:21:40.472Z,1.50
2023-01-19T03:24:15.495Z,1.40
2023-01-19T03:26:52.376Z,1.30
2023-01-19T03:29:30.883Z,1.30
2023-01-19T03:32:07.414Z,1.30
2023-01-19T03:34:40.806Z,1.40
2023-01-19T03:37:14.036Z,1.50
2023-01-19T03:39:46.786Z,1.60
2023-01-19T03:42:20.211Z,1.60
2023-01-19T03:44:56.550Z,1.50
2023-01-19T03:47:28.790Z,1.40
2023-01-19T03:50:03.869Z,1.40
2023-01-19T03:52:38.127Z,1.30
2023-01-19T03:55:10.421Z,1.30
2023-01-19T03:57:41.108Z,1.30
2023-01-19T04:00:16.734Z,1.20
2023-01-19T04:02:47.123Z,1.20
2023-01-19T04:05:19.758Z,1.20
2023-01-19T04:07:55.238Z,1.10
2023-01-19T04:10:26.302Z,1.20
2023-01-19T04:13:01.458Z,1.20
2023-01-19T04:15:35.629Z,1.20
2023-01-19T04:18:06.979Z,1.20
2023-01-19T04:20:37.090Z,1.20
2023-01-19T04:23:07.468Z,1.20
2023-01-19T04:25:38.965Z,1.20
2023-01-19T04:28:09.478Z,1.30
2023-01-19T04:30:42.143Z,1.50
2023-01-19T04:33:12.425Z,1.60
2023-01-19T04:35:42.578Z,1.70
2023-01-19T04:38:12.780Z,1.80
2023-01-19T04:40:43.340Z,1.80
2023-01-19T04:43:14.321Z,1.80
2023-01-19T04:45:47.460Z,1.80
2023-01-19T04:48:18.657Z,1.80
2023-01-19T04:50:50.019Z,1.80
2023-01-19T04:53:27.528Z,1.90
2023-01-19T04:55:59.040Z,2.00
2023-01-19T04:58:29.385Z,2.00
2023-01-19T05:01:02.067Z,2.00
2023-01-19T05:03:32.309Z,2.10
2023-01-19T05:06:02.343Z,2.10
2023-01-19T05:08:32.450Z,2.10
2023-01-19T05:11:02.764Z,2.00
2023-01-19T05:13:33.570Z,2.10
2023-01-19T05:16:07.204Z,2.10
2023-01-19T05:18:39.791Z,2.10
2023-01-19T05:21:10.745Z,2.20
2023-01-19T05:23:41.457Z,2.20
2023-01-19T05:26:11.817Z,2.20
2023-01-19T05:28:42.139Z,2.10
2023-01-19T05:31:14.878Z,2.10
2023-01-19T05:33:45.046Z,2.10
2023-01-19T05:36:15.104Z,2.10
2023-01-19T05:38:45.292Z,2.10
2023-01-19T05:41:15.380Z,2.20
2023-01-19T05:43:45.525Z,2.20
2023-01-19T05:46:18.232Z,2.20
2023-01-19T05:48:50.972Z,2.30
2023-01-19T05:54:42.889Z,2.30
2023-01-19T05:57:12.972Z,2.30
2023-01-19T05:59:43.167Z,2.40
2023-01-19T06:02:16.101Z,2.30
2023-01-19T06:04:46.270Z,2.40
2023-01-19T06:07:16.330Z,2.50
2023-01-19T06:09:46.431Z,2.40
2023-01-19T06:12:16.497Z,2.50
2023-01-19T06:14:46.678Z,2.50
2023-01-19T06:17:20.369Z,2.50
2023-01-19T06:19:50.467Z,2.50
2023-01-19T06:22:24.742Z,2.40
2023-01-19T06:24:54.879Z,2.40
2023-01-19T06:27:27.091Z,2.40
2023-01-19T06:29:58.467Z,2.40
2023-01-19T06:32:31.111Z,2.60
2023-01-19T06:35:01.306Z,2.50
2023-01-19T06:37:31.599Z,2.40
2023-01-19T06:40:01.731Z,2.30
2023-01-19T06:42:31.922Z,2.10
2023-01-19T06:45:03.682Z,2.00
2023-01-19T06:47:36.506Z,2.00
2023-01-19T06:50:07.182Z,1.80
2023-01-19T06:52:42.329Z,1.70
2023-01-19T06:55:14.639Z,1.60
2023-01-19T06:57:44.764Z,1.40
2023-01-19T07:00:17.203Z,1.40
2023-01-19T07:02:49.912Z,1.40
2023-01-19T07:05:22.156Z,1.40
2023-01-19T07:07:56.550Z,1.30
2023-01-19T07:10:27.672Z,1.40
2023-01-19T07:13:17.945Z,1.40
2023-01-19T07:15:48.104Z,1.40
2023-01-19T07:18:20.778Z,1.40
2023-01-19T07:20:50.962Z,1.40
2023-01-19T07:23:21.093Z,1.30
2023-01-19T07:25:53.804Z,1.30
2023-01-19T07:28:24.017Z,1.30
2023-01-19T07:30:58.523Z,1.30
2023-01-19T07:33:31.403Z,1.30
2023-01-19T07:36:01.597Z,1.30
2023-01-19T07:38:32.688Z,1.20
2023-01-19T07:41:06.750Z,1.20
2023-01-19T07:43:37.350Z,1.30
2023-01-19T07:46:12.800Z,1.30
2023-01-19T07:48:47.436Z,1.30
2023-01-19T07:51:19.069Z,1.30
2023-01-19T07:53:52.161Z,1.30
2023-01-19T07:56:23.921Z,1.30
2023-01-19T07:58:54.848Z,1.30
2023-01-19T08:01:25.216Z,1.40
2023-01-19T08:03:58.031Z,1.40
2023-01-19T08:06:35.638Z,1.40
2023-01-19T08:09:07.092Z,1.40
2023-01-19T08:11:37.330Z,1.40
2023-01-19T08:14:08.179Z,1.50
2023-01-19T08:16:38.576Z,1.50
2023-01-19T08:19:11.289Z,1.50
2023-01-19T08:21:41.608Z,1.60
2023-01-19T08:24:22.844Z,1.60
2023-01-19T08:26:53.769Z,1.70
2023-01-19T08:29:23.828Z,1.70
2023-01-19T08:31:55.533Z,1.70
2023-01-19T08:34:31.058Z,1.80
2023-01-19T08:37:01.833Z,1.80
2023-01-19T08:39:31.963Z,1.80
2023-01-19T08:42:02.583Z,2.00
2023-01-19T08:44:32.707Z,2.00
2023-01-19T08:47:03.047Z,2.10
2023-01-19T08:49:35.731Z,2.00
2023-01-19T08:52:05.874Z,2.00
2023-01-19T08:54:36.036Z,2.00
2023-01-19T08:57:06.299Z,2.20
2023-01-19T08:59:38.447Z,2.20
2023-01-19T09:02:09.543Z,2.30
2023-01-19T09:04:42.544Z,2.40
2023-01-19T09:07:12.655Z,2.50
2023-01-19T09:09:43.525Z,2.40
2023-01-19T09:12:13.911Z,2.40
2023-01-19T09:14:44.058Z,2.40
2023-01-19T09:17:14.840Z,2.50
2023-01-19T09:19:47.532Z,2.60
2023-01-19T09:22:17.735Z,2.60
2023-01-19T09:24:47.786Z,2.70
2023-01-19T09:27:20.988Z,2.80
2023-01-19T09:29:56.572Z,2.70
2023-01-19T09:32:26.738Z,2.70
2023-01-19T09:34:59.378Z,2.70
2023-01-19T09:37:29.522Z,2.70
2023-01-19T09:39:59.609Z,2.60
2023-01-19T09:42:40.301Z,2.50
2023-01-19T09:45:19.049Z,2.50
2023-01-19T09:47:52.325Z,2.50
2023-01-19T09:50:36.256Z,2.50
2023-01-19T09:53:16.475Z,2.70
2023-01-19T09:55:46.834Z,2.70
2023-01-19T09:58:19.331Z,2.80
2023-01-19T10:01:00.379Z,2.80
2023-01-19T10:03:31.392Z,2.90
2023-01-19T10:06:08.868Z,2.80
2023-01-19T10:08:49.716Z,2.80
2023-01-19T10:11:51.314Z,2.90
2023-01-19T10:14:34.007Z,2.90
2023-01-19T10:17:20.282Z,2.90
2023-01-19T10:19:56.618Z,3.00
2023-01-19T10:22:31.665Z,2.90
2023-01-19T10:25:19.833Z,2.90
2023-01-19T10:27:51.452Z,3.00
2023-01-19T10:30:26.711Z,3.00
2023-01-19T10:32:57.441Z,2.90
2023-01-19T10:35:28.055Z,2.80
2023-01-19T10:38:05.570Z,2.80
2023-01-19T10:40:43.050Z,2.90
2023-01-19T10:43:46.313Z,2.90
2023-01-19T10:46:45.974Z,3.00
2023-01-19T10:49:31.388Z,3.00
2023-01-19T10:52:03.497Z,3.10
2023-01-19T10:54:40.722Z,3.20
2023-01-19T10:57:18.440Z,3.30
2023-01-19T10:59:53.359Z,3.40
2023-01-19T11:02:28.783Z,3.40
2023-01-19T11:05:02.128Z,3.40
2023-01-19T11:07:35.662Z,3.40
2023-01-19T11:10:33.483Z,3.40
2023-01-19T11:13:12.589Z,3.50
2023-01-19T11:15:48.482Z,3.50
2023-01-19T11:18:31.641Z,3.60
2023-01-19T11:21:06.734Z,3.80
2023-01-19T11:23:43.060Z,3.90
2023-01-19T11:26:27.297Z,4.00
2023-01-19T11:29:00.791Z,3.90
2023-01-19T11:31:38.117Z,3.90
2023-01-19T11:34:26.736Z,4.10
2023-01-19T11:37:04.843Z,4.00
2023-01-19T11:39:49.025Z,4.10
2023-01-19T11:42:23.647Z,4.20
2023-01-19T11:45:05.772Z,4.40
2023-01-19T11:47:44.310Z,4.60
2023-01-19T11:50:26.124Z,4.70
2023-01-19T11:53:04.165Z,4.80
2023-01-19T11:55:45.034Z,5.00
2023-01-19T11:58:21.802Z,5.00
2023-01-19T12:00:57.859Z,5.10
2023-01-19T12:03:34.988Z,5.60
2023-01-19T12:06:12.941Z,6.10
2023-01-19T12:08:49.032Z,6.90
2023-01-19T12:11:24.376Z,7.20
2023-01-19T12:14:01.497Z,7.10
2023-01-19T12:16:37.330Z,6.60
2023-01-19T12:19:17.262Z,6.50
2023-01-19T12:21:52.501Z,6.30
2023-01-19T12:24:33.130Z,6.20
2023-01-19T12:27:10.806Z,6.30
2023-01-19T12:29:45.492Z,6.60
2023-01-19T12:32:36.938Z,6.60
2023-01-19T12:35:09.358Z,6.50
2023-01-19T12:37:45.638Z,6.40
2023-01-19T12:40:35.223Z,6.50
2023-01-19T12:43:08.690Z,6.40
2023-01-19T12:45:42.098Z,6.40
2023-01-19T12:48:29.270Z,6.40
2023-01-19T12:50:59.417Z,6.30
2023-01-19T12:53:30.947Z,6.40
2023-01-19T12:56:08.717Z,6.50
2023-01-19T12:58:40.296Z,6.40
2023-01-19T13:01:23.443Z,6.20
2023-01-19T13:04:06.924Z,6.10
2023-01-19T13:07:10.614Z,6.20
2023-01-19T13:09:43.231Z,6.30
2023-01-19T13:12:29.515Z,6.30
2023-01-19T13:15:31.408Z,6.40
2023-01-19T13:18:06.150Z,6.60
2023-01-19T13:20:47.949Z,6.80
2023-01-19T13:24:00.538Z,6.80
2023-01-19T13:26:37.128Z,6.70
2023-01-19T13:29:16.877Z,6.50
2023-01-19T13:31:50.362Z,6.20
2023-01-19T13:34:28.808Z,6.00
2023-01-19T13:37:02.200Z,5.90
2023-01-19T13:39:40.213Z,5.70
2023-01-19T13:42:19.701Z,5.60
2023-01-19T13:44:55.810Z,5.40
2023-01-19T13:47:36.026Z,5.30
2023-01-19T13:50:23.013Z,5.00
2023-01-19T13:52:55.694Z,4.70
2023-01-19T13:55:27.322Z,4.70
2023-01-19T13:57:59.115Z,4.70
2023-01-19T14:00:33.519Z,4.70
2023-01-19T14:03:16.415Z,4.70
2023-01-19T14:05:52.649Z,4.70
2023-01-19T14:08:27.220Z,4.70
2023-01-19T14:11:07.592Z,4.60
2023-01-19T14:13:43.265Z,4.60
2023-01-19T14:16:20.478Z,4.50
2023-01-19T14:19:05.427Z,4.50
2023-01-19T14:21:46.238Z,4.40
2023-01-19T14:24:21.774Z,4.40
2023-01-19T14:26:56.053Z,4.30
2023-01-19T14:29:32.592Z,4.30
2023-01-19T14:32:23.336Z,4.40
2023-01-19T14:35:04.046Z,4.40
2023-01-19T14:37:39.405Z,4.30
2023-01-19T14:40:28.444Z,4.30
2023-01-19T14:43:03.249Z,4.30
2023-01-19T14:45:39.421Z,4.30
2023-01-19T14:48:20.572Z,4.30
2023-01-19T14:51:02.740Z,4.30
2023-01-19T14:53:40.973Z,4.30
2023-01-19T14:56:11.959Z,4.30
2023-01-19T14:58:42.441Z,4.40
2023-01-19T15:01:12.950Z,4.20
2023-01-19T15:03:45.403Z,4.10
2023-01-19T15:06:19.409Z,4.10
2023-01-19T15:08:53.397Z,4.10
2023-01-19T15:11:29.927Z,4.10
2023-01-19T15:14:00.357Z,4.20
2023-01-19T15:16:32.939Z,4.20
2023-01-19T15:19:03.961Z,4.30
2023-01-19T15:21:34.618Z,4.30
2023-01-19T15:24:08.045Z,4.30
2023-01-19T15:26:40.755Z,4.20
2023-01-19T15:29:25.945Z,4.20
2023-01-19T15:31:56.459Z,4.10
2023-01-19T15:34:26.880Z,4.10
2023-01-19T15:36:57.175Z,4.00
2023-01-19T15:39:29.927Z,4.10
2023-01-19T15:42:00.211Z,4.20
2023-01-19T15:44:38.037Z,4.10
2023-01-19T15:47:08.280Z,4.00
2023-01-19T15:49:38.318Z,3.90
2023-01-19T15:52:08.814Z,3.70
2023-01-19T15:54:41.454Z,3.60
2023-01-19T15:57:13.312Z,3.60
2023-01-19T15:59:46.439Z,3.60
2023-01-19T16:02:16.901Z,3.60
2023-01-19T16:04:54.183Z,3.60
2023-01-19T16:07:24.417Z,3.60
2023-01-19T16:09:57.353Z,3.60
2023-01-19T16:12:27.691Z,3.60
2023-01-19T16:14:57.762Z,3.60
2023-01-19T16:17:28.113Z,3.60
2023-01-19T16:19:58.414Z,3.60
2023-01-19T16:22:28.935Z,3.50
2023-01-19T16:25:01.867Z,3.50
2023-01-19T16:27:34.691Z,3.40
2023-01-19T16:30:05.544Z,3.40
2023-01-19T16:32:38.478Z,3.30
2023-01-19T16:35:12.834Z,3.20
2023-01-19T16:37:43.430Z,3.10
2023-01-19T16:40:17.340Z,3.10
2023-01-19T16:42:53.737Z,3.10
2023-01-19T16:45:23.904Z,3.00
2023-01-19T16:47:54.426Z,3.00
2023-01-19T16:50:24.665Z,3.00
2023-01-19T16:53:00.240Z,2.90
2023-01-19T16:55:33.268Z,3.00
2023-01-19T16:58:03.462Z,2.90
2023-01-19T17:00:33.682Z,2.80
2023-01-19T17:03:06.695Z,2.80
2023-01-19T17:05:37.201Z,2.70
2023-01-19T17:08:08.161Z,2.70
2023-01-19T17:10:44.147Z,2.70
2023-01-19T17:13:14.645Z,2.80
2023-01-19T17:15:47.868Z,2.70
2023-01-19T17:18:18.266Z,2.70
2023-01-19T17:20:48.827Z,2.70
2023-01-19T17:23:19.380Z,2.60
2023-01-19T17:25:59.261Z,2.60
2023-01-19T17:28:30.419Z,2.60
2023-01-19T17:31:07.241Z,2.50
2023-01-19T17:33:37.869Z,2.50
2023-01-19T17:36:13.080Z,2.50
2023-01-19T17:38:44.217Z,2.50
2023-01-19T17:41:21.570Z,2.40
2023-01-19T17:43:53.239Z,2.40
2023-01-19T17:46:26.786Z,2.40
2023-01-19T17:48:59.386Z,2.30
2023-01-19T17:51:32.107Z,2.30
2023-01-19T17:54:02.630Z,2.40
2023-01-19T17:56:37.606Z,2.40
2023-01-19T17:59:09.013Z,2.40
2023-01-19T18:01:41.211Z,2.50
2023-01-19T18:04:12.510Z,2.50
2023-01-19T18:06:43.092Z,2.40
2023-01-19T18:09:14.667Z,2.40
2023-01-19T18:11:47.885Z,2.40
2023-01-19T18:14:18.103Z,2.40
2023-01-19T18:16:48.319Z,2.40
2023-01-19T18:19:21.347Z,2.40
2023-01-19T18:21:51.615Z,2.50
2023-01-19T18:24:22.949Z,2.50
2023-01-19T18:26:57.389Z,2.50
2023-01-19T18:29:27.952Z,2.40
2023-01-19T18:31:58.215Z,2.50
2023-01-19T18:34:28.582Z,2.40
2023-01-19T18:36:58.769Z,2.40
2023-01-19T18:39:30.227Z,2.50
2023-01-19T18:42:02.953Z,2.50
2023-01-19T18:44:33.104Z,2.50
2023-01-19T18:47:03.415Z,2.50
2023-01-19T18:49:33.514Z,2.40
2023-01-19T18:52:03.933Z,2.30
2023-01-19T18:54:34.443Z,2.10
2023-01-19T18:57:07.654Z,2.00
2023-01-19T18:59:38.286Z,1.90
2023-01-19T19:02:11.298Z,1.90
2023-01-19T19:04:43.292Z,1.90
2023-01-19T19:07:13.505Z,1.80
2023-01-19T19:09:43.779Z,1.70
2023-01-19T19:12:19.131Z,1.70
2023-01-19T19:14:51.943Z,1.70
2023-01-19T19:17:22.084Z,1.60
2023-01-19T19:19:52.263Z,1.60
2023-01-19T19:22:25.724Z,1.50
2023-01-19T19:24:55.989Z,1.50
2023-01-19T19:27:28.713Z,1.60
2023-01-19T19:29:59.044Z,1.60
2023-01-19T19:32:29.142Z,1.70
2023-01-19T19:34:59.334Z,1.80
2023-01-19T19:37:30.223Z,1.90
2023-01-19T19:40:00.372Z,2.00
2023-01-19T19:42:33.297Z,2.00
2023-01-19T19:45:03.650Z,2.00
2023-01-19T19:47:36.043Z,2.00
2023-01-19T19:50:06.485Z,2.00
2023-01-19T19:52:42.344Z,2.00
2023-01-19T19:55:13.785Z,2.00
2023-01-19T19:57:47.587Z,2.10
2023-01-19T20:00:28.503Z,2.10
2023-01-19T20:03:00.004Z,2.20
2023-01-19T20:05:30.720Z,2.30
2023-01-19T20:08:00.917Z,2.30
2023-01-19T20:10:33.297Z,2.30
2023-01-19T20:13:08.948Z,2.30
2023-01-19T20:15:41.121Z,2.30
2023-01-19T20:18:11.216Z,2.30
2023-01-19T20:20:45.002Z,2.30
2023-01-19T20:23:16.495Z,2.30
2023-01-19T20:25:46.812Z,2.20
2023-01-19T20:28:20.561Z,2.20
2023-01-19T20:30:50.983Z,2.20
2023-01-19T20:33:21.153Z,2.10
2023-01-19T20:35:52.574Z,2.10
2023-01-19T20:38:22.630Z,2.00
2023-01-19T20:40:52.955Z,1.90
2023-01-19T20:43:25.701Z,1.90
2023-01-19T20:45:56.181Z,1.90
2023-01-19T20:48:27.467Z,2.00
2023-01-19T20:51:02.415Z,2.00
2023-01-19T20:53:33.337Z,2.20
2023-01-19T20:56:07.596Z,2.30
2023-01-19T20:58:43.030Z,2.50
2023-01-19T21:01:16.878Z,2.50
2023-01-19T21:03:48.024Z,2.40
2023-01-19T21:06:21.886Z,2.30
2023-01-19T21:08:52.436Z,2.20
2023-01-19T21:11:24.433Z,2.10
2023-01-19T21:13:58.269Z,2.00
2023-01-19T21:16:34.180Z,2.00
2023-01-19T21:19:04.369Z,1.90
2023-01-19T21:21:34.472Z,1.90
2023-01-19T21:24:06.774Z,1.90
2023-01-19T21:26:37.814Z,1.80
2023-01-19T21:29:15.848Z,1.70
2023-01-19T21:31:46.209Z,1.80
2023-01-19T21:34:31.653Z,1.70
2023-01-19T21:37:03.789Z,1.80
2023-01-19T21:39:33.982Z,1.90
2023-01-19T21:42:05.435Z,1.90
2023-01-19T21:44:38.457Z,1.90
2023-01-19T21:47:11.879Z,1.90
2023-01-19T21:49:42.385Z,1.90
2023-01-19T21:52:12.664Z,1.90
2023-01-19T21:54:46.164Z,2.00
2023-01-19T21:57:19.617Z,1.90
2023-01-19T21:59:52.699Z,1.90
2023-01-19T22:02:37.725Z,2.00
2023-01-19T22:05:11.256Z,2.10
2023-01-19T22:07:42.227Z,2.20
2023-01-19T22:10:14.541Z,2.20
2023-01-19T22:12:44.650Z,2.30
2023-01-19T22:15:17.806Z,2.30
2023-01-19T22:17:48.966Z,2.20
2023-01-19T22:20:19.960Z,2.30
2023-01-19T22:22:50.377Z,2.30
2023-01-19T22:25:23.944Z,2.30
2023-01-19T22:27:54.132Z,2.30
2023-01-19T22:30:28.476Z,2.30
2023-01-19T22:33:00.145Z,2.20
2023-01-19T22:35:30.887Z,2.20
2023-01-19T22:38:01.789Z,2.20
2023-01-19T22:40:33.673Z,2.30
2023-01-19T22:43:03.807Z,2.30
2023-01-19T22:45:37.637Z,2.20
2023-01-19T22:48:09.460Z,2.10
2023-01-19T22:50:40.289Z,2.10
2023-01-19T22:53:10.945Z,2.10
2023-01-19T22:55:41.229Z,2.10
2023-01-19T22:58:11.559Z,2.10
2023-01-19T23:00:46.019Z,2.10
2023-01-19T23:03:17.062Z,2.10
2023-01-19T23:05:47.621Z,2.00
2023-01-19T23:08:17.769Z,2.00
2023-01-19T23:10:48.873Z,2.00
2023-01-19T23:13:21.542Z,1.90
2023-01-19T23:15:55.566Z,1.90
2023-01-19T23:18:27.583Z,1.90
2023-01-19T23:20:58.549Z,1.90
2023-01-19T23:23:28.878Z,1.90
2023-01-19T23:26:04.074Z,2.00
2023-01-19T23:28:34.718Z,2.00
2023-01-19T23:31:21.161Z,2.00
2023-01-19T23:33:54.299Z,2.00
2023-01-19T23:36:26.628Z,2.10
2023-01-19T23:39:00.498Z,2.00
2023-01-19T23:41:37.818Z,2.00
2023-01-19T23:44:08.591Z,2.00
2023-01-19T23:46:45.389Z,1.90
2023-01-19T23:49:19.512Z,1.80
2023-01-19T23:51:50.005Z,1.80
2023-01-19T23:54:23.629Z,1.70
2023-01-19T23:56:54.717Z,1.60
2023-01-19T23:59:25.161Z,1.50
